Time;durP1;ratioP1;P1;durP2;ratioP2;P2;SDS_P1;SDS_P2;PMS_P1;PMS_P2;Temp;Humidity;BMP_temperature;BMP_pressure;BME280_temperature;BME280_humidity;BME280_pressure;Samples;Min_cycle;Max_cycle;Signal;HPM_P1;HPM_P2
2021/04/10 00:00:41;;;;;;;83.12;43.65;;;;;;;4.21;56.74;99965.23;1626752;88;21151;-83
2021/04/10 00:03:11;;;;;;;85.40;44.03;;;;;;;4.18;56.74;99960.17;1626621;88;21135;-83
2021/04/10 00:05:37;;;;;;;81.00;43.15;;;;;;;4.15;56.79;99966.85;1602861;88;21170;-83
2021/04/10 00:08:04;;;;;;;78.52;40.15;;;;;;;4.12;56.74;99963.09;1626954;88;21210;-83
2021/04/10 00:10:31;;;;;;;74.97;40.83;;;;;;;4.09;56.82;99963.25;1626937;88;21181;-83
2021/04/10 00:12:58;;;;;;;73.57;41.42;;;;;;;4.05;56.88;99966.95;1626866;88;21604;-83
2021/04/10 00:15:27;;;;;;;74.17;38.98;;;;;;;4.03;56.93;99969.25;1626985;88;21166;-83
2021/04/10 00:17:54;;;;;;;74.10;39.98;;;;;;;3.99;56.96;99962.03;1626605;88;21232;-83
2021/04/10 00:20:22;;;;;;;68.95;36.83;;;;;;;3.97;57.77;99962.56;1627286;88;21220;-83
2021/04/10 00:22:48;;;;;;;63.55;34.48;;;;;;;3.89;57.78;99965.58;1626799;88;21327;-83
2021/04/10 00:25:17;;;;;;;65.97;33.23;;;;;;;3.84;57.72;99964.11;1627069;88;21182;-83
2021/04/10 00:27:43;;;;;;;65.22;33.95;;;;;;;3.80;58.00;99965.20;1627001;88;21316;-83
2021/04/10 00:30:13;;;;;;;56.90;32.55;;;;;;;3.75;58.10;99965.41;1624610;88;21620;-83
2021/04/10 00:32:40;;;;;;;52.40;28.57;;;;;;;3.71;58.51;99964.72;1624238;88;21186;-83
2021/04/10 00:35:07;;;;;;;48.20;27.05;;;;;;;3.66;58.71;99963.28;1623893;88;21198;-83
2021/04/10 00:37:35;;;;;;;52.45;28.57;;;;;;;3.64;58.44;99962.50;1600450;88;21291;-83
2021/04/10 00:40:06;;;;;;;55.05;28.35;;;;;;;3.61;58.39;99960.04;1601427;89;21177;-83
2021/04/10 00:42:34;;;;;;;51.35;28.07;;;;;;;3.58;58.73;99963.64;1601153;89;21169;-83
2021/04/10 00:45:00;;;;;;;47.83;26.75;;;;;;;3.53;58.71;99962.58;1601533;89;21264;-83
2021/04/10 00:47:26;;;;;;;39.48;25.75;;;;;;;3.51;58.89;99949.22;1600942;89;21158;-83
2021/04/10 00:49:51;;;;;;;44.35;24.23;;;;;;;3.47;58.70;99956.34;1601380;89;21228;-83
2021/04/10 00:52:18;;;;;;;38.78;24.07;;;;;;;3.45;59.04;99958.64;1601021;89;21278;-83
2021/04/10 00:54:47;;;;;;;36.00;23.87;;;;;;;3.42;59.06;99958.36;1601485;89;21131;-83
2021/04/10 00:57:13;;;;;;;38.65;22.75;;;;;;;3.39;59.26;99958.94;1602115;88;21324;-83
2021/04/10 00:59:39;;;;;;;42.62;22.25;;;;;;;3.36;59.03;99959.95;1626784;88;21161;-83
2021/04/10 01:02:08;;;;;;;40.30;21.93;;;;;;;3.36;59.08;99961.27;1626861;88;21209;-83
2021/04/10 01:04:34;;;;;;;43.20;25.17;;;;;;;3.33;58.98;99950.13;1626763;88;21194;-83
2021/04/10 01:07:01;;;;;;;39.50;20.97;;;;;;;3.29;59.27;99951.59;1625728;88;21176;-83
2021/04/10 01:09:27;;;;;;;34.18;22.13;;;;;;;3.25;59.53;99950.48;1625320;88;21163;-83
2021/04/10 01:12:22;;;;;;;42.50;22.73;;;;;;;3.21;59.61;99951.09;1626777;88;21217;-83
2021/04/10 01:15:02;;;;;;;34.13;22.37;;;;;;;3.16;59.38;99943.09;1623374;88;21159;-83
2021/04/10 01:17:32;;;;;;;36.20;21.75;;;;;;;3.13;59.35;99946.72;1622301;87;21167;-83
2021/04/10 01:20:40;;;;;;;38.55;22.10;;;;;;;3.07;59.67;99948.31;1625078;88;21331;-83
2021/04/10 01:23:34;;;;;;;39.30;22.30;;;;;;;3.03;59.61;99950.69;1593255;88;21215;-83
2021/04/10 01:26:11;;;;;;;38.63;22.87;;;;;;;3.00;59.79;99957.34;1624202;88;21630;-83
2021/04/10 01:28:58;;;;;;;40.23;21.95;;;;;;;2.97;59.72;99953.12;1623337;87;21203;-83
2021/04/10 01:31:29;;;;;;;37.08;20.35;;;;;;;2.93;59.71;99954.19;1624225;88;21625;-83
2021/04/10 01:34:00;;;;;;;46.37;22.27;;;;;;;2.90;59.94;99954.33;1622645;88;21188;-83
2021/04/10 01:36:32;;;;;;;35.28;19.80;;;;;;;2.87;59.75;99953.16;1625863;87;21634;-82
2021/04/10 01:39:00;;;;;;;35.60;20.45;;;;;;;2.86;59.93;99948.01;1627085;88;21143;-82
2021/04/10 01:41:27;;;;;;;35.70;21.00;;;;;;;2.81;60.11;99950.38;1626934;88;21297;-83
2021/04/10 01:43:54;;;;;;;41.10;20.90;;;;;;;2.79;60.23;99959.17;1626988;88;21232;-83
2021/04/10 01:46:24;;;;;;;36.48;20.12;;;;;;;2.75;60.59;99949.82;1626800;88;21151;-82
2021/04/10 01:48:52;;;;;;;38.53;21.55;;;;;;;2.70;60.34;99950.48;1627050;88;21166;-82
2021/04/10 01:51:20;;;;;;;34.78;20.23;;;;;;;2.68;61.03;99943.20;1624389;87;21172;-82
2021/04/10 01:53:48;;;;;;;37.93;20.43;;;;;;;2.64;61.07;99943.81;1624140;88;21143;-83
2021/04/10 01:56:18;;;;;;;39.25;21.27;;;;;;;2.60;61.15;99937.06;1624274;88;21156;-82
2021/04/10 01:58:45;;;;;;;37.95;21.40;;;;;;;2.52;61.62;99938.69;1625386;88;21129;-83
2021/04/10 02:01:13;;;;;;;34.98;19.82;;;;;;;2.48;61.14;99935.00;1626384;88;21300;-83
2021/04/10 02:03:45;;;;;;;30.80;18.75;;;;;;;2.46;61.28;99935.52;1624841;88;21205;-83
2021/04/10 02:06:13;;;;;;;37.38;20.57;;;;;;;2.42;61.28;99939.19;1627265;88;21146;-83
2021/04/10 02:08:43;;;;;;;37.55;20.75;;;;;;;2.38;61.15;99941.55;1626710;88;21593;-83
2021/04/10 02:11:11;;;;;;;35.30;19.92;;;;;;;2.34;61.39;99939.54;1626893;88;21292;-83
2021/04/10 02:13:38;;;;;;;33.15;19.20;;;;;;;2.30;61.69;99944.05;1626841;88;21529;-83
2021/04/10 02:16:05;;;;;;;36.90;20.17;;;;;;;2.24;61.80;99945.61;1626784;88;21526;-83
2021/04/10 02:18:37;;;;;;;34.33;18.62;;;;;;;2.21;61.64;99950.11;1627043;88;21581;-83
2021/04/10 02:21:08;;;;;;;39.25;20.62;;;;;;;2.17;61.75;99944.17;1626771;88;21252;-83
2021/04/10 02:23:42;;;;;;;35.50;19.50;;;;;;;2.14;61.78;99939.13;1626796;87;21340;-83
2021/04/10 02:26:09;;;;;;;37.53;20.95;;;;;;;2.11;62.24;99942.70;1627067;88;21213;-83
2021/04/10 02:28:36;;;;;;;31.55;19.85;;;;;;;2.07;62.21;99942.45;1626770;88;21317;-83
2021/04/10 02:31:03;;;;;;;31.57;20.05;;;;;;;2.04;62.29;99938.68;1627089;88;21194;-83
2021/04/10 02:33:37;;;;;;;34.83;20.00;;;;;;;2.00;62.24;99933.20;1626602;88;21222;-83
2021/04/10 02:36:04;;;;;;;33.70;19.32;;;;;;;1.98;62.33;99936.80;1627226;88;21755;-83
2021/04/10 02:38:33;;;;;;;35.60;19.62;;;;;;;1.93;62.87;99936.98;1626737;88;21150;-83
2021/04/10 02:41:16;;;;;;;34.05;18.00;;;;;;;1.91;63.04;99934.92;1639747;87;21322;-83
2021/04/10 02:43:50;;;;;;;40.67;21.35;;;;;;;1.86;63.08;99932.50;1653939;87;21257;-83
2021/04/10 02:46:17;;;;;;;44.48;23.25;;;;;;;1.82;63.32;99934.01;1653730;85;21152;-83
2021/04/10 02:49:00;;;;;;;44.55;25.35;;;;;;;1.80;63.24;99937.12;1654167;87;21558;-83
2021/04/10 02:51:36;;;;;;;44.63;26.17;;;;;;;1.77;63.27;99935.48;1646340;84;21211;-83
2021/04/10 02:54:04;;;;;;;48.68;26.90;;;;;;;1.76;63.04;99936.86;1650920;85;21214;-82
2021/04/10 02:56:32;;;;;;;50.08;27.52;;;;;;;1.73;63.45;99941.73;1653771;87;21140;-83
2021/04/10 02:59:01;;;;;;;43.83;23.30;;;;;;;1.70;63.53;99940.56;1635609;87;21518;-82
2021/04/10 03:01:30;;;;;;;42.27;23.85;;;;;;;1.67;63.45;99939.39;1626994;88;21529;-85
2021/04/10 03:03:57;;;;;;;40.90;24.30;;;;;;;1.64;63.30;99934.31;1626747;88;21220;-85
2021/04/10 03:06:24;;;;;;;40.35;24.10;;;;;;;1.60;63.38;99936.66;1627154;88;21249;-85
2021/04/10 03:08:51;;;;;;;41.53;24.50;;;;;;;1.57;63.87;99926.38;1625622;88;21194;-85
2021/04/10 03:11:17;;;;;;;34.58;21.48;;;;;;;1.55;63.78;99923.86;1600340;88;21172;-85
2021/04/10 03:13:44;;;;;;;37.73;19.77;;;;;;;1.53;63.85;99923.53;1625528;88;21269;-85
2021/04/10 03:16:10;;;;;;;35.83;20.32;;;;;;;1.50;63.81;99920.59;1626872;88;21197;-85
2021/04/10 03:18:39;;;;;;;39.70;21.02;;;;;;;1.48;64.30;99920.26;1625990;88;21160;-85
2021/04/10 03:21:06;;;;;;;38.60;21.15;;;;;;;1.46;64.53;99918.20;1569214;91;22038;-85
2021/04/10 03:23:32;;;;;;;37.48;21.23;;;;;;;1.44;64.28;99921.30;1588651;90;21644;-85
2021/04/10 03:26:00;;;;;;;42.17;21.97;;;;;;;1.43;64.63;99927.42;1595326;90;21349;-85
2021/04/10 03:28:29;;;;;;;39.35;23.05;;;;;;;1.40;64.63;99931.83;1623977;88;21149;-85
2021/04/10 03:31:02;;;;;;;42.67;23.85;;;;;;;1.38;64.79;99930.19;1624089;88;21216;-85
2021/04/10 03:33:26;;;;;;;39.98;22.17;;;;;;;1.37;64.61;99936.31;1623422;87;22494;-85
2021/04/10 03:35:52;;;;;;;35.80;20.65;;;;;;;1.34;64.73;99924.73;1624167;88;21210;-85
2021/04/10 03:38:18;;;;;;;34.88;20.08;;;;;;;1.30;64.55;99931.81;1626173;88;21138;-85
2021/04/10 03:40:44;;;;;;;30.65;19.57;;;;;;;1.29;65.06;99924.94;1627021;88;21732;-85
2021/04/10 03:43:10;;;;;;;35.15;20.80;;;;;;;1.25;64.85;99919.48;1626826;88;21251;-85
2021/04/10 03:45:36;;;;;;;34.38;18.23;;;;;;;1.24;65.18;99922.97;1626859;88;21198;-83
2021/04/10 03:48:02;;;;;;;39.53;18.98;;;;;;;1.23;64.80;99917.84;1626923;88;21139;-82
2021/04/10 03:50:28;;;;;;;42.23;22.95;;;;;;;1.22;65.28;99920.90;1626422;88;21166;-83
2021/04/10 03:52:54;;;;;;;39.53;20.50;;;;;;;1.19;65.26;99927.52;1626993;88;21261;-82
2021/04/10 03:55:20;;;;;;;44.77;25.00;;;;;;;1.16;65.94;99926.34;1627022;88;21201;-83
2021/04/10 03:57:46;;;;;;;42.03;20.80;;;;;;;1.13;65.98;99921.27;1626878;88;21618;-83
2021/04/10 04:00:14;;;;;;;39.63;20.72;;;;;;;1.10;65.55;99918.33;1627060;88;21134;-83
2021/04/10 04:02:40;;;;;;;40.85;22.80;;;;;;;1.09;65.70;99922.30;1626714;88;21182;-83
2021/04/10 04:05:07;;;;;;;38.15;20.80;;;;;;;1.06;66.07;99923.72;1626286;88;21579;-82
2021/04/10 04:07:33;;;;;;;36.30;20.08;;;;;;;1.04;66.16;99918.57;1625546;88;21609;-83
2021/04/10 04:10:00;;;;;;;34.30;19.77;;;;;;;1.02;66.12;99928.20;1627242;88;21291;-82
2021/04/10 04:12:26;;;;;;;33.75;20.60;;;;;;;1.01;65.93;99926.48;1626895;88;21182;-83
2021/04/10 04:14:52;;;;;;;39.18;22.85;;;;;;;0.99;66.15;99927.44;1627028;88;21208;-82
2021/04/10 04:17:18;;;;;;;40.90;22.25;;;;;;;0.97;65.90;99929.28;1627172;88;21142;-82
2021/04/10 04:19:44;;;;;;;38.05;21.27;;;;;;;0.94;66.30;99928.48;1626864;88;21205;-82
2021/04/10 04:22:11;;;;;;;37.08;20.70;;;;;;;0.94;66.30;99923.74;1627032;88;21146;-82
2021/04/10 04:24:37;;;;;;;35.33;20.00;;;;;;;0.92;66.17;99931.61;1626961;88;21344;-83
2021/04/10 04:27:04;;;;;;;34.65;18.45;;;;;;;0.89;66.41;99927.83;1626950;88;21204;-82
2021/04/10 04:29:30;;;;;;;37.90;22.15;;;;;;;0.89;66.26;99933.03;1627270;88;21182;-83
2021/04/10 04:31:56;;;;;;;34.53;19.45;;;;;;;0.89;66.75;99928.29;1626667;88;21406;-82
2021/04/10 04:34:22;;;;;;;34.70;18.85;;;;;;;0.89;66.49;99936.92;1625051;88;21129;-83
2021/04/10 04:36:48;;;;;;;35.17;19.98;;;;;;;0.89;66.56;99935.62;1623895;88;21771;-82
2021/04/10 04:39:14;;;;;;;33.80;19.70;;;;;;;0.88;66.66;99936.51;1626439;88;21098;-83
2021/04/10 04:41:40;;;;;;;40.50;20.52;;;;;;;0.89;66.50;99936.92;1627032;88;21702;-82
2021/04/10 04:44:06;;;;;;;37.13;21.23;;;;;;;0.89;67.09;99933.03;1626833;88;21628;-83
2021/04/10 04:46:32;;;;;;;35.48;19.95;;;;;;;0.92;66.80;99934.64;1627135;88;21142;-82
2021/04/10 04:48:58;;;;;;;32.53;19.05;;;;;;;0.93;66.54;99930.69;1626763;88;21324;-82
2021/04/10 04:51:24;;;;;;;37.75;20.85;;;;;;;0.95;66.97;99929.32;1624884;88;21143;-83
2021/04/10 04:53:50;;;;;;;41.23;21.70;;;;;;;0.96;67.22;99927.14;1625178;88;21234;-82
2021/04/10 04:56:17;;;;;;;33.20;19.95;;;;;;;0.99;67.72;99929.62;1626828;88;21771;-83
2021/04/10 04:58:43;;;;;;;35.38;20.08;;;;;;;1.04;67.89;99926.36;1626905;88;21173;-82
2021/04/10 05:01:09;;;;;;;32.53;18.73;;;;;;;1.06;67.86;99925.86;1626775;88;21746;-83
2021/04/10 05:03:35;;;;;;;30.15;17.87;;;;;;;1.11;68.33;99930.86;1627060;87;21625;-82
2021/04/10 05:06:01;;;;;;;34.00;18.35;;;;;;;1.16;68.16;99939.34;1626867;88;21330;-82
2021/04/10 05:08:27;;;;;;;32.85;18.40;;;;;;;1.21;68.84;99946.94;1626879;88;21221;-82
2021/04/10 05:10:53;;;;;;;34.15;19.20;;;;;;;1.25;68.38;99957.17;1627114;88;21196;-82
2021/04/10 05:13:19;;;;;;;36.68;21.75;;;;;;;1.30;68.49;99961.71;1626782;88;21182;-82
2021/04/10 05:15:45;;;;;;;39.15;20.68;;;;;;;1.34;69.01;99969.77;1627192;88;21178;-82
2021/04/10 05:18:11;;;;;;;42.20;21.57;;;;;;;1.37;69.14;99968.35;1626757;88;21178;-82
2021/04/10 05:20:37;;;;;;;39.38;21.87;;;;;;;1.42;69.28;99973.38;1627055;88;21344;-83
2021/04/10 05:23:03;;;;;;;38.75;21.85;;;;;;;1.47;69.61;99970.59;1626895;88;21158;-82
2021/04/10 05:25:29;;;;;;;39.18;22.65;;;;;;;1.51;69.90;99972.98;1625346;88;21186;-82
2021/04/10 05:27:55;;;;;;;36.03;21.25;;;;;;;1.57;69.83;99970.59;1624065;88;21153;-82
2021/04/10 05:30:22;;;;;;;37.53;22.32;;;;;;;1.62;69.98;99963.46;1623914;88;21129;-82
2021/04/10 05:32:48;;;;;;;42.98;23.75;;;;;;;1.69;70.25;99966.20;1625843;88;21344;-82
2021/04/10 05:35:17;;;;;;;38.42;21.33;;;;;;;1.79;70.38;99969.26;1626999;88;21765;-82
2021/04/10 05:37:44;;;;;;;38.05;20.43;;;;;;;1.85;70.45;99972.45;1626863;88;21599;-82
2021/04/10 05:40:11;;;;;;;47.33;23.07;;;;;;;1.96;69.86;99968.53;1627095;88;21312;-82
2021/04/10 05:42:37;;;;;;;39.53;22.98;;;;;;;2.07;69.80;99962.41;1626654;88;21545;-82
2021/04/10 05:45:04;;;;;;;37.50;19.35;;;;;;;2.17;69.67;99962.84;1636449;87;21183;-82
2021/04/10 05:47:30;;;;;;;33.48;17.25;;;;;;;2.29;69.39;99959.25;1626427;87;21591;-82
2021/04/10 05:49:56;;;;;;;30.62;18.20;;;;;;;2.42;69.19;99950.91;1632381;87;21182;-82
2021/04/10 05:52:22;;;;;;;25.55;16.67;;;;;;;2.53;69.10;99955.16;1644457;87;21167;-82
2021/04/10 05:54:48;;;;;;;32.88;16.30;;;;;;;2.66;69.12;99958.05;1641298;87;21294;-82
2021/04/10 05:57:14;;;;;;;27.13;15.05;;;;;;;2.80;69.09;99960.89;1653961;87;21326;-82
2021/04/10 05:59:40;;;;;;;25.68;14.30;;;;;;;2.91;68.85;99953.41;1639182;87;21185;-82
2021/04/10 06:02:06;;;;;;;23.18;14.45;;;;;;;3.02;68.78;99945.91;1639546;87;21268;-82
2021/04/10 06:04:35;;;;;;;28.17;15.90;;;;;;;3.11;68.47;99952.45;1635104;87;21208;-82
2021/04/10 06:07:02;;;;;;;23.65;13.80;;;;;;;3.20;68.27;99961.15;1647321;87;21181;-82
2021/04/10 06:09:29;;;;;;;25.75;14.90;;;;;;;3.28;68.15;99961.61;1653971;87;21600;-82
2021/04/10 06:11:55;;;;;;;24.47;14.98;;;;;;;3.35;68.21;99955.64;1647248;87;21584;-82
2021/04/10 06:14:22;;;;;;;26.12;15.30;;;;;;;3.42;68.32;99958.36;1643891;87;21166;-82
2021/04/10 06:16:51;;;;;;;24.32;13.90;;;;;;;3.48;68.14;99955.89;1633291;87;21182;-82
2021/04/10 06:19:19;;;;;;;24.95;14.87;;;;;;;3.56;68.21;99958.14;1626993;87;21215;-82
2021/04/10 06:21:45;;;;;;;23.27;13.83;;;;;;;3.64;68.50;99955.98;1575967;90;21199;-82
2021/04/10 06:24:13;;;;;;;23.38;14.65;;;;;;;3.71;68.51;99954.28;1608183;88;21333;-84
2021/04/10 06:26:43;;;;;;;25.97;16.32;;;;;;;3.80;68.67;99963.42;1613072;88;21579;-84
2021/04/10 06:29:11;;;;;;;28.45;14.93;;;;;;;3.87;68.76;99958.27;1624255;88;21159;-84
2021/04/10 06:31:38;;;;;;;25.45;15.15;;;;;;;3.98;68.96;99967.72;1653750;87;21270;-84
2021/04/10 06:34:04;;;;;;;25.35;15.50;;;;;;;4.11;69.01;99965.30;1653878;87;21579;-84
2021/04/10 06:36:30;;;;;;;28.57;14.65;;;;;;;4.26;68.86;99962.84;1652868;87;21262;-84
2021/04/10 06:38:57;;;;;;;23.50;14.65;;;;;;;4.39;68.79;99953.43;1651608;87;21160;-84
2021/04/10 06:41:24;;;;;;;21.20;12.45;;;;;;;4.52;68.58;99955.77;1653219;87;21307;-83
2021/04/10 06:43:50;;;;;;;25.80;13.50;;;;;;;4.66;68.25;99968.93;1653818;87;21148;-83
2021/04/10 06:46:16;;;;;;;19.12;12.37;;;;;;;4.81;68.37;99966.44;1653743;87;21186;-83
2021/04/10 06:48:44;;;;;;;19.17;12.30;;;;;;;4.97;67.82;99967.72;1636593;87;21635;-83
2021/04/10 06:51:14;;;;;;;21.93;14.45;;;;;;;5.13;67.51;99959.41;1610465;87;21152;-83
2021/04/10 06:53:46;;;;;;;20.30;12.23;;;;;;;5.27;67.39;99960.80;1644289;87;21274;-83
2021/04/10 06:56:21;;;;;;;21.17;13.00;;;;;;;5.44;67.04;99958.53;1643142;87;21172;-83
2021/04/10 06:59:11;;;;;;;25.00;12.45;;;;;;;5.59;67.33;99948.94;1653085;87;21192;-82
2021/04/10 07:01:39;;;;;;;21.75;12.50;;;;;;;5.75;67.18;99955.44;1653756;87;21192;-82
2021/04/10 07:04:06;;;;;;;17.67;11.53;;;;;;;5.97;67.14;99954.59;1653558;87;21222;-83
2021/04/10 07:06:33;;;;;;;19.65;11.50;;;;;;;6.18;67.02;99948.99;1607161;88;21673;-82
2021/04/10 07:08:59;;;;;;;17.57;10.95;;;;;;;6.39;66.89;99949.02;1634834;87;21198;-82
2021/04/10 07:11:25;;;;;;;16.55;11.12;;;;;;;6.62;66.64;99950.69;1649041;87;21151;-82
2021/04/10 07:13:51;;;;;;;20.75;10.28;;;;;;;6.81;66.06;99957.75;1638640;87;21164;-83
2021/04/10 07:16:17;;;;;;;24.15;10.88;;;;;;;7.04;65.25;99947.12;1642686;87;21238;-82
2021/04/10 07:18:44;;;;;;;12.50;7.65;;;;;;;7.26;65.09;99950.52;1647966;87;21301;-82
2021/04/10 07:21:22;;;;;;;13.83;8.55;;;;;;;7.46;63.57;99934.31;1653894;87;21212;-82
2021/04/10 07:23:54;;;;;;;13.62;8.98;;;;;;;7.66;63.38;99937.41;1653029;87;21184;-82
2021/04/10 07:26:26;;;;;;;14.90;9.20;;;;;;;7.81;63.62;99932.92;1653770;87;21136;-83
2021/04/10 07:28:52;;;;;;;15.08;8.23;;;;;;;7.97;62.68;99927.84;1599959;87;21210;-83
2021/04/10 07:31:18;;;;;;;14.30;7.92;;;;;;;8.15;62.20;99934.09;1628913;87;21192;-83
2021/04/10 07:33:59;;;;;;;14.33;7.65;;;;;;;8.31;61.19;99928.14;1653137;87;21721;-83
2021/04/10 07:36:25;;;;;;;15.13;8.95;;;;;;;8.48;61.23;99926.16;1653275;87;21127;-83
2021/04/10 07:39:03;;;;;;;10.75;6.75;;;;;;;8.65;60.11;99920.09;1653413;87;21322;-83
2021/04/10 07:41:27;;;;;;;10.75;7.78;;;;;;;8.83;60.57;99927.13;1651955;85;21328;-84
2021/04/10 07:43:53;;;;;;;12.28;8.20;;;;;;;9.00;61.10;99930.34;1650193;87;21200;-84
2021/04/10 07:46:27;;;;;;;11.45;8.00;;;;;;;9.11;60.33;99928.62;1626448;88;21345;-84
2021/04/10 07:49:13;;;;;;;13.10;9.83;;;;;;;9.28;60.17;99927.84;1598240;90;21169;-84
2021/04/10 07:51:55;;;;;;;14.10;11.20;;;;;;;9.49;59.30;99920.16;1597745;90;21258;-84
2021/04/10 07:54:28;;;;;;;13.55;10.13;;;;;;;9.70;58.20;99916.38;1597544;90;21125;-83
2021/04/10 07:56:57;;;;;;;10.82;7.92;;;;;;;9.89;58.01;99917.99;1598017;90;21191;-82
2021/04/10 07:59:24;;;;;;;14.07;9.23;;;;;;;10.11;59.01;99921.15;1597653;90;21137;-83
2021/04/10 08:01:50;;;;;;;11.97;7.50;;;;;;;10.32;57.89;99929.22;1597520;90;21564;-83
2021/04/10 08:04:18;;;;;;;11.93;7.28;;;;;;;10.47;57.03;99930.67;1592085;90;21179;-83
2021/04/10 08:07:02;;;;;;;12.47;7.50;;;;;;;10.61;57.59;99926.94;1597977;90;21185;-83
2021/04/10 08:09:38;;;;;;;10.75;6.92;;;;;;;10.74;57.34;99931.61;1597462;90;21337;-83
2021/04/10 08:12:09;;;;;;;12.55;7.55;;;;;;;10.93;56.13;99931.47;1596400;88;21169;-82
2021/04/10 08:14:44;;;;;;;9.98;6.22;;;;;;;11.06;56.67;99925.55;1600507;88;21577;-83
2021/04/10 08:17:16;;;;;;;9.73;6.75;;;;;;;11.17;54.70;99920.23;1604394;88;21164;-82
2021/04/10 08:19:42;;;;;;;11.80;7.70;;;;;;;11.30;54.65;99926.67;1600666;88;21281;-83
2021/04/10 08:22:08;;;;;;;13.35;9.13;;;;;;;11.48;54.10;99932.23;1605213;88;21087;-83
2021/04/10 08:24:39;;;;;;;13.13;7.53;;;;;;;11.64;54.32;99924.70;1576174;90;21531;-83
2021/04/10 08:27:14;;;;;;;10.90;7.33;;;;;;;11.80;53.81;99926.08;1601653;88;21315;-84
2021/04/10 08:29:42;;;;;;;15.05;8.68;;;;;;;11.98;52.75;99919.28;1596122;90;21307;-83
2021/04/10 08:32:10;;;;;;;13.28;8.53;;;;;;;12.15;53.28;99919.16;1595969;90;21183;-83
2021/04/10 08:34:37;;;;;;;12.45;6.67;;;;;;;12.33;53.42;99920.70;1596809;90;21138;-84
2021/04/10 08:37:08;;;;;;;10.88;6.60;;;;;;;12.52;51.83;99923.43;1598052;90;21137;-83
2021/04/10 08:39:41;;;;;;;10.20;6.70;;;;;;;12.66;51.77;99920.41;1596561;90;21138;-83
2021/04/10 08:42:15;;;;;;;13.28;9.03;;;;;;;12.79;52.85;99919.33;1593638;88;21118;-83
2021/04/10 08:44:44;;;;;;;10.72;7.35;;;;;;;12.94;52.76;99922.45;1609557;88;21661;-82
2021/04/10 08:47:11;;;;;;;11.95;7.60;;;;;;;13.08;51.92;99921.55;1613290;88;21175;-83
2021/04/10 08:49:46;;;;;;;11.25;6.90;;;;;;;13.22;51.28;99924.78;1607726;88;21312;-82
2021/04/10 08:52:24;;;;;;;8.55;7.20;;;;;;;13.33;51.08;99922.88;1573049;90;21206;-83
2021/04/10 08:54:51;;;;;;;9.33;6.47;;;;;;;13.47;50.77;99917.64;1629158;87;21611;-83
2021/04/10 08:57:18;;;;;;;8.28;5.60;;;;;;;13.65;51.14;99913.78;1648414;87;21313;-83
2021/04/10 08:59:47;;;;;;;9.98;5.45;;;;;;;13.80;50.03;99923.48;1651078;87;21770;-83
2021/04/10 09:02:22;;;;;;;9.08;5.65;;;;;;;13.96;49.70;99924.23;1649384;87;21205;-83
2021/04/10 09:05:05;;;;;;;9.88;5.50;;;;;;;14.08;48.46;99922.59;1632666;87;21154;-83
2021/04/10 09:07:54;;;;;;;8.25;5.40;;;;;;;14.23;46.51;99926.94;1595489;88;21212;-83
2021/04/10 09:10:31;;;;;;;7.50;4.75;;;;;;;14.36;47.08;99931.09;1598914;88;21259;-83
2021/04/10 09:13:14;;;;;;;8.90;5.42;;;;;;;14.44;47.27;99925.38;1603392;88;21141;-83
2021/04/10 09:15:40;;;;;;;;;;;;;;;14.49;46.62;99927.13;1609714;87;21874;-83
2021/04/10 09:18:08;;;;;;;9.23;6.10;;;;;;;14.51;46.76;99925.20;1582256;88;20239;-83
2021/04/10 09:20:50;;;;;;;8.45;5.55;;;;;;;14.51;46.23;99929.19;1596302;90;21150;-83
2021/04/10 09:23:33;;;;;;;10.10;4.72;;;;;;;14.49;46.83;99935.09;1594622;90;21324;-83
2021/04/10 09:26:08;;;;;;;6.95;4.90;;;;;;;14.44;45.59;99928.04;1597444;90;21693;-83
2021/04/10 09:28:35;;;;;;;8.30;4.78;;;;;;;14.38;45.26;99928.65;1566509;90;21149;-83
2021/04/10 09:31:02;;;;;;;8.60;5.42;;;;;;;14.33;45.67;99940.67;1598152;90;21153;-82
2021/04/10 09:33:34;;;;;;;8.30;5.30;;;;;;;14.24;45.32;99939.22;1596503;90;21291;-82
2021/04/10 09:36:04;;;;;;;6.22;4.33;;;;;;;14.17;45.86;99942.59;1598458;88;21113;-82
2021/04/10 09:38:42;;;;;;;9.78;5.10;;;;;;;14.10;45.33;99942.83;1598022;88;21572;-81
2021/04/10 09:41:10;;;;;;;7.05;5.08;;;;;;;14.02;45.59;99937.76;1607568;88;21205;-81
2021/04/10 09:43:40;;;;;;;6.85;4.95;;;;;;;13.95;44.47;99936.66;1619737;88;21174;-81
2021/04/10 09:46:11;;;;;;;9.58;5.70;;;;;;;13.87;44.63;99935.69;1573902;89;21158;-82
2021/04/10 09:48:42;;;;;;;10.53;5.45;;;;;;;13.82;45.07;99932.14;1585331;88;21180;-82
2021/04/10 09:51:12;;;;;;;7.37;4.80;;;;;;;13.77;45.33;99941.83;1595064;90;21114;-82
2021/04/10 09:53:37;;;;;;;8.95;5.70;;;;;;;13.72;44.93;99946.73;1597988;88;21157;-82
2021/04/10 09:56:08;;;;;;;11.75;5.78;;;;;;;13.66;44.81;99945.14;1596376;90;21133;-81
2021/04/10 09:58:44;;;;;;;7.25;4.85;;;;;;;13.62;44.79;99948.53;1596860;88;21627;-82
2021/04/10 10:01:20;;;;;;;13.50;6.90;;;;;;;13.58;44.75;99942.67;1600213;88;21130;-81
2021/04/10 10:03:47;;;;;;;12.40;6.22;;;;;;;13.54;45.00;99945.26;1596086;90;21207;-82
2021/04/10 10:06:28;;;;;;;11.38;6.87;;;;;;;13.52;45.56;99941.06;1595613;90;21173;-82
2021/04/10 10:08:54;;;;;;;10.40;5.37;;;;;;;13.49;45.27;99940.88;1596165;90;21264;-82
2021/04/10 10:11:21;;;;;;;6.67;4.25;;;;;;;13.48;44.92;99942.33;1598208;90;21109;-82
2021/04/10 10:13:48;;;;;;;9.33;5.83;;;;;;;13.47;44.65;99943.31;1597408;90;21177;-82
2021/04/10 10:16:27;;;;;;;9.83;5.40;;;;;;;13.48;45.15;99947.14;1597156;90;21621;-82
2021/04/10 10:18:53;;;;;;;10.58;6.65;;;;;;;13.49;45.54;99940.02;1594287;89;21209;-82
2021/04/10 10:21:22;;;;;;;10.58;6.60;;;;;;;13.50;45.65;99940.39;1595823;90;21666;-83
2021/04/10 10:23:58;;;;;;;9.65;5.62;;;;;;;13.51;46.11;99948.68;1596958;90;21114;-93
2021/04/10 10:26:38;;;;;;;9.23;5.60;;;;;;;13.51;46.19;99944.70;1597417;90;21173;-96
2021/04/10 10:29:15;;;;;;;19.77;6.47;;;;;;;13.51;46.03;99938.08;1597531;90;21311;-95
2021/04/10 10:31:50;;;;;;;7.47;5.67;;;;;;;13.51;45.74;99944.70;1597308;90;21323;-95
2021/04/10 10:34:22;;;;;;;10.45;4.95;;;;;;;13.50;46.12;99935.09;1597697;90;21155;-95
2021/04/10 10:36:50;;;;;;;12.75;6.05;;;;;;;13.51;46.53;99950.01;1597051;90;21320;-95
2021/04/10 10:39:35;;;;;;;10.20;5.90;;;;;;;13.51;46.29;99949.52;1597413;90;21154;-94
2021/04/10 10:42:05;;;;;;;10.15;6.75;;;;;;;13.51;46.01;99950.84;1597368;90;21173;-93
2021/04/10 10:44:34;;;;;;;10.68;6.35;;;;;;;13.52;46.18;99956.52;1597307;90;21170;-94
2021/04/10 10:47:07;;;;;;;12.37;5.95;;;;;;;13.52;46.52;99953.00;1597174;89;21180;-94
2021/04/10 10:49:33;;;;;;;6.92;4.47;;;;;;;13.51;45.69;99958.79;1597278;90;21174;-93
2021/04/10 10:52:00;;;;;;;8.70;4.85;;;;;;;13.52;45.08;99963.59;1596753;90;21592;-86
2021/04/10 10:54:37;;;;;;;7.00;4.65;;;;;;;13.51;44.77;99958.79;1596636;90;21303;-87
2021/04/10 10:57:10;;;;;;;6.45;4.70;;;;;;;13.53;45.44;99957.34;1594100;90;21514;-87
2021/04/10 10:59:36;;;;;;;10.80;5.17;;;;;;;13.53;45.26;99954.20;1596681;90;21591;-87
2021/04/10 11:02:03;;;;;;;8.18;5.58;;;;;;;13.54;45.70;99958.52;1596528;90;21140;-87
2021/04/10 11:04:36;;;;;;;7.83;4.97;;;;;;;13.56;45.89;99976.45;1596936;88;21127;-88
2021/04/10 11:07:06;;;;;;;8.93;4.62;;;;;;;13.57;45.64;99979.45;1595761;88;21212;-87
2021/04/10 11:09:38;;;;;;;8.15;4.85;;;;;;;13.60;44.85;99987.61;1595458;90;21178;-87
2021/04/10 11:12:16;;;;;;;12.23;6.47;;;;;;;13.62;45.07;99992.27;1596092;90;21184;-86
2021/04/10 11:14:43;;;;;;;9.98;5.85;;;;;;;13.64;44.97;99993.48;1600767;88;21196;-86
2021/04/10 11:17:11;;;;;;;9.58;5.45;;;;;;;13.67;44.65;99993.20;1572109;90;21312;-86
2021/04/10 11:19:43;;;;;;;13.00;8.10;;;;;;;13.68;45.01;99997.52;1571384;90;21211;-86
2021/04/10 11:22:15;;;;;;;23.12;9.15;;;;;;;13.68;45.14;99996.19;1625323;88;21131;-84
2021/04/10 11:24:51;;;;;;;10.80;6.55;;;;;;;13.71;44.20;100005.19;1598114;88;21141;-84
2021/04/10 11:27:22;;;;;;;8.08;4.85;;;;;;;13.72;44.19;100006.40;1597372;88;21161;-85
2021/04/10 11:30:04;;;;;;;11.53;6.17;;;;;;;13.74;44.36;100007.56;1605490;88;21207;-85
2021/04/10 11:32:43;;;;;;;14.18;6.95;;;;;;;13.74;44.58;100003.59;1605371;88;21192;-85
2021/04/10 11:35:20;;;;;;;7.12;4.80;;;;;;;13.75;44.45;100014.05;1597570;88;21170;-85
2021/04/10 11:37:51;;;;;;;8.80;5.80;;;;;;;13.77;44.20;100011.27;1601174;88;21582;-85